Time;durP1;ratioP1;P1;durP2;ratioP2;P2;SDS_P1;SDS_P2;PMS_P1;PMS_P2;Temp;Humidity;BMP_temperature;BMP_pressure;BME280_temperature;BME280_humidity;BME280_pressure;Samples;Min_cycle;Max_cycle;Signal;HPM_P1;HPM_P2
2023/10/12 00:01:59;;;;;;;41.47;19.63;;;17.50;99.90;;;;;;4982958;28;38027;-76
2023/10/12 00:04:28;;;;;;;36.42;19.23;;;17.50;99.90;;;;;;4989297;28;38490;-77
2023/10/12 00:06:55;;;;;;;31.23;17.30;;;17.40;99.90;;;;;;4991137;28;39038;-78
2023/10/12 00:09:25;;;;;;;37.72;20.40;;;17.30;99.90;;;;;;5018210;28;38071;-78
2023/10/12 00:11:57;;;;;;;35.30;17.83;;;17.30;99.90;;;;;;4990383;28;38581;-77
2023/10/12 00:14:32;;;;;;;36.83;18.38;;;17.30;99.90;;;;;;4983550;28;37482;-77
2023/10/12 00:16:59;;;;;;;31.25;17.42;;;17.30;99.90;;;;;;4987928;28;39321;-78
2023/10/12 00:19:25;;;;;;;36.05;19.27;;;17.20;99.90;;;;;;4979820;28;36301;-77
2023/10/12 00:21:59;;;;;;;39.55;20.42;;;17.20;99.90;;;;;;4990146;28;38430;-77
2023/10/12 00:24:25;;;;;;;34.22;19.13;;;17.20;99.90;;;;;;4992056;28;39092;-78
2023/10/12 00:26:53;;;;;;;29.92;18.98;;;17.20;99.90;;;;;;4984366;28;37791;-77
2023/10/12 00:29:20;;;;;;;35.38;18.92;;;17.10;99.90;;;;;;4992771;28;37594;-77
2023/10/12 00:31:48;;;;;;;33.30;19.33;;;17.10;99.90;;;;;;4993099;28;38872;-78
2023/10/12 00:34:16;;;;;;;38.10;19.70;;;17.20;99.90;;;;;;4985171;28;38204;-79
2023/10/12 00:36:45;;;;;;;38.75;20.15;;;17.10;99.90;;;;;;4994229;28;37814;-77
2023/10/12 00:39:12;;;;;;;37.58;20.73;;;17.20;99.90;;;;;;4983443;28;36107;-76
2023/10/12 00:41:44;;;;;;;38.53;19.45;;;17.10;99.90;;;;;;4992555;28;39385;-77
2023/10/12 00:44:18;;;;;;;33.55;19.02;;;17.10;99.90;;;;;;4982678;28;39261;-78
2023/10/12 00:49:26;;;;;;;38.13;18.67;;;17.10;99.90;;;;;;4997483;28;37838;-78
2023/10/12 00:52:08;;;;;;;30.35;18.10;;;17.10;99.90;;;;;;5001567;28;37707;-78
2023/10/12 00:57:10;;;;;;;33.05;17.67;;;17.00;99.90;;;;;;4983788;28;39532;-78
2023/10/12 00:59:40;;;;;;;35.50;18.67;;;17.00;99.90;;;;;;4997421;28;37533;-78
2023/10/12 01:04:38;;;;;;;32.45;18.35;;;17.00;99.90;;;;;;5031417;28;20037;-78
2023/10/12 01:07:06;;;;;;;35.08;19.58;;;17.00;99.90;;;;;;5048157;28;38889;-78
2023/10/12 01:09:43;;;;;;;32.75;17.38;;;16.90;99.90;;;;;;5031850;28;37513;-78
2023/10/12 01:12:16;;;;;;;31.23;18.17;;;16.90;99.90;;;;;;5025130;28;38560;-78
2023/10/12 01:14:44;;;;;;;28.83;18.40;;;16.90;99.90;;;;;;5021551;28;39359;-79
2023/10/12 01:17:16;;;;;;;41.85;21.15;;;16.90;99.90;;;;;;5029296;28;37315;-77
2023/10/12 01:19:47;;;;;;;33.92;18.23;;;16.90;99.90;;;;;;5031613;28;36441;-78
2023/10/12 01:22:14;;;;;;;28.75;17.02;;;16.80;99.90;;;;;;5022238;28;39793;-78
2023/10/12 01:27:20;;;;;;;23.55;16.60;;;16.80;99.90;;;;;;5022206;28;39098;-78
2023/10/12 01:29:46;;;;;;;30.90;17.58;;;16.90;99.90;;;;;;5021491;28;36973;-78
2023/10/12 01:34:39;;;;;;;31.92;17.58;;;16.90;99.90;;;;;;5016353;28;38331;-78
2023/10/12 01:45:19;;;;;;;29.00;16.00;;;16.80;99.90;;;;;;5027834;28;38840;-77
2023/10/12 01:47:54;;;;;;;27.63;14.75;;;16.70;99.90;;;;;;5035546;28;37664;-77
2023/10/12 01:50:20;;;;;;;24.77;14.43;;;16.70;99.90;;;;;;5019912;28;36373;-79
2023/10/12 01:52:47;;;;;;;31.90;16.63;;;16.80;99.90;;;;;;5021525;28;38070;-76
2023/10/12 01:55:23;;;;;;;30.23;15.35;;;16.70;99.90;;;;;;5020929;28;37737;-79
2023/10/12 01:57:53;;;;;;;31.55;13.80;;;16.70;99.90;;;;;;5025410;28;37295;-79
2023/10/12 02:00:28;;;;;;;25.08;14.00;;;16.70;99.90;;;;;;5023457;28;36283;-77
2023/10/12 02:03:12;;;;;;;32.33;16.63;;;16.70;99.90;;;;;;5019536;28;38762;-77
2023/10/12 02:05:46;;;;;;;28.10;12.98;;;16.70;99.90;;;;;;5037001;28;47092;-77
2023/10/12 02:08:16;;;;;;;31.20;13.25;;;16.70;99.90;;;;;;5042981;28;37959;-76
2023/10/12 02:11:06;;;;;;;27.65;11.73;;;16.70;99.90;;;;;;5044999;28;37619;-77
2023/10/12 02:13:35;;;;;;;26.20;11.43;;;16.60;99.90;;;;;;5032477;28;47114;-77
2023/10/12 02:16:12;;;;;;;18.75;10.23;;;16.60;99.90;;;;;;5031217;28;38260;-78
2023/10/12 02:18:39;;;;;;;22.85;11.35;;;16.50;99.90;;;;;;5028590;28;37148;-78
2023/10/12 02:23:38;;;;;;;17.88;10.43;;;16.60;99.90;;;;;;5047480;28;40848;-77
2023/10/12 02:28:53;;;;;;;22.00;10.25;;;16.60;99.90;;;;;;5039408;28;37098;-78
2023/10/12 02:31:20;;;;;;;21.80;10.27;;;16.60;99.90;;;;;;5050018;28;37519;-77
2023/10/12 02:33:46;;;;;;;21.75;10.48;;;16.50;99.90;;;;;;5045309;28;38482;-78
2023/10/12 02:36:17;;;;;;;19.58;10.20;;;16.60;99.90;;;;;;5033123;28;37454;-78
2023/10/12 02:38:44;;;;;;;18.92;10.18;;;16.60;99.90;;;;;;5036618;28;37900;-78
2023/10/12 02:41:13;;;;;;;18.45;10.40;;;16.60;99.90;;;;;;5036605;28;37192;-78
2023/10/12 02:43:43;;;;;;;26.52;11.07;;;16.60;99.90;;;;;;5039273;28;38578;-78
2023/10/12 02:46:21;;;;;;;20.02;8.93;;;16.60;99.90;;;;;;5032626;28;39855;-78
2023/10/12 02:48:50;;;;;;;21.45;10.50;;;16.50;99.90;;;;;;5031269;28;38053;-78
2023/10/12 02:51:22;;;;;;;21.42;9.90;;;16.50;99.90;;;;;;5015379;28;35888;-78
2023/10/12 02:53:50;;;;;;;15.85;9.10;;;16.50;99.90;;;;;;5022879;28;40344;-78
2023/10/12 02:56:22;;;;;;;18.80;9.85;;;16.50;99.90;;;;;;5028137;28;37964;-78
2023/10/12 02:58:48;;;;;;;18.50;10.23;;;16.50;99.90;;;;;;5035776;28;37747;-78
2023/10/12 03:01:21;;;;;;;21.98;10.35;;;16.50;99.90;;;;;;5020281;28;37486;-77
2023/10/12 03:03:48;;;;;;;18.23;10.30;;;16.50;99.90;;;;;;5030954;28;38879;-78
2023/10/12 03:06:22;;;;;;;28.65;13.20;;;16.40;99.90;;;;;;5026987;28;38571;-78
2023/10/12 03:11:25;;;;;;;19.33;10.60;;;16.40;99.90;;;;;;5019256;28;37649;-78
2023/10/12 03:14:12;;;;;;;26.67;10.10;;;16.50;99.90;;;;;;5029003;28;37626;-78
2023/10/12 03:16:42;;;;;;;24.58;11.98;;;16.50;99.90;;;;;;5037140;28;48487;-78
2023/10/12 03:19:26;;;;;;;22.77;11.38;;;16.50;99.90;;;;;;5025741;28;38784;-77
2023/10/12 03:21:53;;;;;;;23.27;12.85;;;16.50;99.90;;;;;;5026195;28;36566;-78
2023/10/12 03:24:29;;;;;;;22.33;11.23;;;16.50;99.90;;;;;;5021030;28;37698;-78
2023/10/12 03:27:10;;;;;;;27.95;12.00;;;16.50;99.90;;;;;;5033237;28;39335;-78
2023/10/12 03:29:43;;;;;;;23.10;11.90;;;16.50;99.90;;;;;;5042552;28;48953;-78
2023/10/12 03:32:11;;;;;;;23.35;13.98;;;16.50;99.90;;;;;;5053123;28;37237;-78
2023/10/12 03:34:53;;;;;;;25.02;13.38;;;16.50;99.90;;;;;;5032809;28;37749;-78
2023/10/12 03:37:44;;;;;;;33.92;17.15;;;16.50;99.90;;;;;;5028874;28;38438;-79
2023/10/12 03:42:57;;;;;;;32.03;15.95;;;16.50;99.90;;;;;;5023946;28;37997;-79
2023/10/12 03:45:24;;;;;;;29.67;16.50;;;16.50;99.90;;;;;;5025583;28;39819;-78
2023/10/12 03:50:51;;;;;;;29.00;17.90;;;16.50;99.90;;;;;;5038620;28;49394;-78
2023/10/12 03:53:26;;;;;;;34.40;18.38;;;16.50;99.90;;;;;;5037932;28;38362;-77
2023/10/12 03:55:59;;;;;;;37.63;22.30;;;16.50;99.90;;;;;;5045585;28;37644;-78
2023/10/12 03:58:25;;;;;;;27.90;19.50;;;16.50;99.90;;;;;;5022706;28;37401;-77
2023/10/12 04:01:13;;;;;;;33.10;22.35;;;16.50;99.90;;;;;;5022849;28;37966;-77
2023/10/12 04:03:42;;;;;;;35.53;20.70;;;16.50;99.90;;;;;;5037636;28;48504;-76
2023/10/12 04:06:15;;;;;;;30.00;18.92;;;16.40;99.90;;;;;;5038151;28;38560;-76
2023/10/12 04:08:51;;;;;;;33.13;19.17;;;16.40;99.90;;;;;;5051414;28;37246;-76
2023/10/12 04:21:23;;;;;;;31.13;18.98;;;16.30;99.90;;;;;;5036566;28;38453;-79
2023/10/12 04:26:38;;;;;;;28.95;16.55;;;16.30;99.90;;;;;;5035109;28;47825;-76
2023/10/12 04:29:13;;;;;;;26.85;17.25;;;16.30;99.90;;;;;;5031748;28;37530;-77
2023/10/12 04:34:12;;;;;;;;;;;16.30;99.90;;;;;;5034649;28;37546;-77
2023/10/12 04:36:44;;;;;;;29.23;17.25;;;16.30;99.90;;;;;;5040628;28;37756;-76
2023/10/12 04:39:25;;;;;;;29.55;16.15;;;16.30;99.90;;;;;;5032533;28;38379;-75
2023/10/12 04:42:01;;;;;;;29.42;15.90;;;16.30;99.90;;;;;;5024556;28;37959;-76
2023/10/12 04:47:09;;;;;;;28.98;14.77;;;16.20;99.90;;;;;;5018733;28;39055;-78
2023/10/12 04:55:06;;;;;;;33.83;17.15;;;16.20;99.90;;;;;;5049536;28;37376;-77
2023/10/12 04:57:34;;;;;;;26.67;16.23;;;16.20;99.90;;;;;;5048884;28;47331;-77
2023/10/12 05:07:53;;;;;;;34.58;17.55;;;16.30;99.90;;;;;;5014455;28;39531;-78
2023/10/12 05:10:27;;;;;;;26.80;16.02;;;16.30;99.90;;;;;;5041678;28;37364;-77
2023/10/12 05:13:05;;;;;;;25.70;15.63;;;16.30;99.90;;;;;;5043505;28;37064;-77
2023/10/12 05:18:47;;;;;;;26.83;17.13;;;16.30;99.90;;;;;;5012671;28;48407;-77
2023/10/12 05:21:13;;;;;;;30.20;17.10;;;16.40;99.90;;;;;;5030006;28;38871;-77
2023/10/12 05:23:39;;;;;;;27.45;16.83;;;16.40;99.90;;;;;;5031279;28;37559;-77
2023/10/12 05:28:31;;;;;;;23.48;15.48;;;16.40;99.90;;;;;;5065477;28;40498;-78
2023/10/12 05:36:00;;;;;;;25.92;17.10;;;16.40;99.90;;;;;;5033157;28;38152;-77
2023/10/12 05:38:34;;;;;;;36.20;19.10;;;16.40;99.90;;;;;;5028239;28;38469;-77
2023/10/12 05:41:01;;;;;;;35.17;17.08;;;16.40;99.90;;;;;;5028145;28;39305;-77
2023/10/12 05:43:31;;;;;;;24.75;16.17;;;16.40;99.90;;;;;;5051334;28;47567;-77
2023/10/12 05:46:01;;;;;;;34.38;16.50;;;16.40;99.90;;;;;;5052611;28;38239;-78
2023/10/12 05:48:27;;;;;;;33.65;17.88;;;16.40;99.90;;;;;;5038442;28;47395;-78
2023/10/12 05:50:53;;;;;;;29.52;16.45;;;16.40;99.90;;;;;;5050450;28;37156;-78
2023/10/12 05:53:23;;;;;;;29.25;16.27;;;16.50;99.90;;;;;;5035251;28;37220;-77
2023/10/12 05:55:49;;;;;;;24.10;15.32;;;16.50;99.90;;;;;;5028340;28;37209;-78
2023/10/12 05:58:15;;;;;;;27.83;17.63;;;16.50;99.90;;;;;;5040434;27;38502;-77
2023/10/12 06:00:45;;;;;;;27.48;17.58;;;16.50;99.90;;;;;;5044125;28;38047;-77
2023/10/12 06:03:20;;;;;;;28.73;14.55;;;16.50;99.90;;;;;;5039173;28;37951;-76
2023/10/12 06:05:48;;;;;;;34.53;18.77;;;16.40;99.90;;;;;;5044651;28;37745;-76
2023/10/12 06:08:16;;;;;;;27.83;16.73;;;16.40;99.90;;;;;;5041450;28;38820;-75
2023/10/12 06:10:43;;;;;;;25.23;17.13;;;16.40;99.90;;;;;;5039824;28;38614;-79
2023/10/12 06:13:12;;;;;;;25.73;16.83;;;16.40;99.90;;;;;;5042682;28;38453;-76
2023/10/12 06:15:40;;;;;;;23.75;15.30;;;16.40;99.90;;;;;;5045657;28;36235;-76
2023/10/12 06:18:10;;;;;;;22.52;14.00;;;16.40;99.90;;;;;;5066335;28;38719;-77
2023/10/12 06:20:40;;;;;;;25.40;16.77;;;16.40;99.90;;;;;;5043533;28;39052;-77
2023/10/12 06:23:14;;;;;;;19.25;13.98;;;16.40;99.90;;;;;;5025683;28;37436;-76
2023/10/12 06:25:43;;;;;;;23.23;14.13;;;16.50;99.90;;;;;;5030098;28;38159;-77
2023/10/12 06:28:18;;;;;;;17.00;11.32;;;16.40;99.90;;;;;;5058663;28;37691;-76
2023/10/12 06:30:45;;;;;;;15.07;11.25;;;16.40;99.90;;;;;;5032102;28;39658;-76
2023/10/12 06:33:14;;;;;;;14.20;10.88;;;16.40;99.90;;;;;;5030692;28;38369;-76
2023/10/12 06:35:58;;;;;;;16.85;11.98;;;16.40;99.90;;;;;;5061308;28;37432;-76
2023/10/12 06:38:39;;;;;;;18.77;11.40;;;16.40;99.90;;;;;;5050662;28;39006;-77
2023/10/12 06:46:19;;;;;;;16.58;13.15;;;16.40;99.90;;;;;;5047710;28;37717;-77
2023/10/12 06:48:46;;;;;;;14.60;12.48;;;16.40;99.90;;;;;;5052531;28;39049;-76
2023/10/12 06:51:16;;;;;;;20.10;14.18;;;16.40;99.90;;;;;;5060732;28;37276;-77
2023/10/12 06:53:51;;;;;;;9.82;7.53;;;16.30;99.90;;;;;;5053532;28;39237;-76
2023/10/12 07:02:22;;;;;;;5.63;3.47;;;16.20;99.90;;;;;;5056507;28;48890;-77
2023/10/12 07:04:37;;;;;;;8.13;2.50;;;16.20;99.90;;;;;;5048357;28;38563;-78
2023/10/12 07:07:11;;;;;;;3.38;1.70;;;16.10;99.90;;;;;;5050409;28;36142;-78
2023/10/12 07:09:39;;;;;;;3.05;1.38;;;16.00;99.90;;;;;;5053895;28;40171;-77
2023/10/12 07:12:19;;;;;;;1.38;1.27;;;15.90;99.90;;;;;;5050518;28;37275;-78
2023/10/12 07:15:32;;;;;;;5.05;1.40;;;15.80;99.90;;;;;;5041393;28;38626;-77
2023/10/12 07:17:35;;;;;;;7.90;1.88;;;15.70;99.90;;;;;;5043060;28;48850;-78
2023/10/12 07:20:01;;;;;;;4.93;1.50;;;15.60;99.90;;;;;;5032202;28;39326;-77
2023/10/12 07:22:27;;;;;;;6.80;2.15;;;15.60;99.90;;;;;;5031332;28;39112;-78
2023/10/12 07:24:54;;;;;;;3.25;1.70;;;15.60;99.90;;;;;;5035696;28;38215;-77
2023/10/12 07:27:22;;;;;;;3.67;1.98;;;15.40;99.90;;;;;;5038259;28;37207;-77
2023/10/12 07:30:02;;;;;;;3.63;2.30;;;15.40;99.90;;;;;;5033970;28;39095;-78
2023/10/12 07:32:31;;;;;;;4.40;2.50;;;15.30;99.90;;;;;;5059525;28;37158;-77
2023/10/12 07:35:06;;;;;;;6.35;2.50;;;15.30;99.90;;;;;;5038714;28;37021;-77
2023/10/12 07:37:33;;;;;;;3.30;2.38;;;15.20;99.90;;;;;;5037265;28;49205;-78
2023/10/12 07:40:16;;;;;;;7.75;2.80;;;15.20;99.90;;;;;;5029577;28;37717;-76
2023/10/12 07:42:46;;;;;;;5.65;2.95;;;15.20;99.90;;;;;;5042303;28;49167;-76
2023/10/12 07:45:15;;;;;;;6.47;3.42;;;15.20;99.90;;;;;;5043109;28;38881;-77
2023/10/12 07:47:42;;;;;;;4.38;3.00;;;15.10;99.90;;;;;;5050084;28;37691;-76
2023/10/12 07:50:25;;;;;;;3.17;2.33;;;15.10;99.90;;;;;;5030492;28;38212;-76
2023/10/12 07:53:06;;;;;;;4.05;2.80;;;15.10;99.90;;;;;;5035448;28;37996;-77
2023/10/12 07:55:41;;;;;;;5.07;2.33;;;15.20;99.90;;;;;;5049695;28;47145;-77
2023/10/12 07:58:12;;;;;;;3.22;2.25;;;15.10;99.90;;;;;;5049385;28;37957;-77
2023/10/12 08:00:41;;;;;;;2.90;2.50;;;15.00;99.90;;;;;;5035738;28;39086;-77
2023/10/12 08:03:39;;;;;;;2.78;2.45;;;15.00;99.90;;;;;;5035561;28;37396;-77
2023/10/12 08:05:59;;;;;;;2.53;1.90;;;14.90;99.90;;;;;;5029351;28;37933;-77
2023/10/12 08:08:34;;;;;;;2.33;2.13;;;15.00;99.90;;;;;;5027494;28;37340;-77
2023/10/12 08:11:09;;;;;;;5.40;3.42;;;15.00;99.90;;;;;;5037858;28;39576;-77
2023/10/12 08:13:39;;;;;;;4.35;2.60;;;15.00;99.90;;;;;;5059810;28;47325;-77
2023/10/12 08:16:13;;;;;;;3.88;2.22;;;15.10;99.90;;;;;;5067730;28;37008;-79
2023/10/12 08:24:03;;;;;;;2.88;2.60;;;15.10;99.90;;;;;;5054372;28;38249;-78
2023/10/12 08:26:35;;;;;;;3.88;2.80;;;15.10;99.90;;;;;;5052524;28;47287;-77
2023/10/12 08:29:09;;;;;;;4.53;2.65;;;15.10;99.90;;;;;;5033008;28;37094;-80
2023/10/12 08:31:43;;;;;;;4.00;2.80;;;15.20;99.90;;;;;;5031741;28;47055;-77
2023/10/12 08:34:25;;;;;;;4.15;3.33;;;15.20;99.90;;;;;;5029412;28;37156;-78
2023/10/12 08:39:37;;;;;;;5.63;3.25;;;15.10;99.90;;;;;;5040900;28;49429;-77
2023/10/12 08:44:59;;;;;;;6.22;3.60;;;15.30;99.90;;;;;;5031339;28;39681;-78
2023/10/12 08:47:44;;;;;;;7.22;4.15;;;15.30;99.90;;;;;;5032764;28;37910;-77
2023/10/12 08:52:50;;;;;;;5.88;4.47;;;15.40;99.90;;;;;;5036260;28;40528;-78
2023/10/12 08:55:24;;;;;;;6.47;4.20;;;15.40;99.90;;;;;;5070270;28;38013;-77
2023/10/12 08:58:18;;;;;;;7.45;4.10;;;15.40;99.90;;;;;;5048840;28;37653;-77
2023/10/12 09:01:07;;;;;;;8.20;4.80;;;15.50;99.90;;;;;;5023655;28;48469;-78
2023/10/12 09:03:38;;;;;;;8.65;5.28;;;15.60;99.90;;;;;;5036732;28;48619;-78
2023/10/12 09:08:50;;;;;;;12.50;7.57;;;15.70;99.90;;;;;;5052863;28;38599;-77
2023/10/12 09:11:19;;;;;;;12.65;8.02;;;15.80;99.90;;;;;;5056323;28;37647;-77
2023/10/12 09:13:48;;;;;;;10.25;6.90;;;15.80;99.90;;;;;;5076947;28;37613;-77
2023/10/12 09:16:15;;;;;;;7.38;5.82;;;15.90;99.90;;;;;;5061588;28;38219;-77
2023/10/12 09:18:44;;;;;;;10.93;7.90;;;15.90;99.90;;;;;;5068137;28;36806;-76
2023/10/12 09:23:58;;;;;;;13.30;8.45;;;15.90;99.90;;;;;;5041019;28;40356;-77
2023/10/12 09:26:33;;;;;;;13.02;7.93;;;15.90;99.90;;;;;;5022123;28;38073;-77
2023/10/12 09:29:12;;;;;;;11.45;7.75;;;16.00;99.90;;;;;;5031527;28;37997;-78
2023/10/12 09:36:43;;;;;;;12.35;9.38;;;16.00;99.90;;;;;;5048972;28;38915;-77
2023/10/12 09:39:17;;;;;;;13.55;9.07;;;16.00;99.90;;;;;;5047842;28;37524;-77
2023/10/12 09:41:55;;;;;;;12.63;9.50;;;16.10;99.90;;;;;;5061409;28;36499;-77
2023/10/12 09:44:26;;;;;;;13.57;9.30;;;16.10;99.90;;;;;;5062615;28;39519;-77
2023/10/12 09:46:57;;;;;;;12.93;9.35;;;16.10;99.90;;;;;;5049636;28;37677;-77
2023/10/12 09:49:30;;;;;;;13.38;10.02;;;16.10;99.90;;;;;;5046881;28;38750;-76
2023/10/12 09:51:59;;;;;;;14.63;10.25;;;16.10;99.90;;;;;;5057545;28;36265;-77
2023/10/12 09:54:38;;;;;;;13.90;9.88;;;16.00;99.90;;;;;;5045851;28;35679;-77
2023/10/12 09:57:50;;;;;;;12.80;9.02;;;16.00;99.90;;;;;;5051302;28;38155;-77
2023/10/12 10:02:55;;;;;;;13.85;9.85;;;16.10;99.90;;;;;;5044222;28;38651;-77
2023/10/12 10:05:51;;;;;;;11.87;10.00;;;16.10;99.90;;;;;;5050457;28;37671;-77
2023/10/12 10:08:17;;;;;;;12.20;9.63;;;16.10;99.90;;;;;;5050678;28;37981;-77
2023/10/12 10:10:45;;;;;;;15.88;11.02;;;16.20;99.90;;;;;;5052362;28;37025;-77
2023/10/12 10:13:49;;;;;;;17.88;12.13;;;16.10;99.90;;;;;;5047081;28;37704;-77
2023/10/12 10:16:17;;;;;;;12.48;9.93;;;16.20;99.90;;;;;;5053529;28;38979;-77
2023/10/12 10:18:46;;;;;;;14.07;10.98;;;16.30;99.90;;;;;;5052627;28;37496;-76
2023/10/12 10:21:15;;;;;;;14.45;10.98;;;16.30;99.90;;;;;;5051323;28;37672;-77
2023/10/12 10:23:48;;;;;;;18.75;12.95;;;16.30;99.90;;;;;;5049742;28;36267;-76
2023/10/12 10:26:20;;;;;;;15.32;11.35;;;16.40;99.90;;;;;;5056018;28;38902;-78
2023/10/12 10:28:55;;;;;;;19.33;12.80;;;16.40;99.90;;;;;;5054669;28;39321;-78
2023/10/12 10:31:31;;;;;;;16.35;12.15;;;16.40;99.90;;;;;;5052478;28;37153;-77
2023/10/12 10:34:01;;;;;;;19.83;14.45;;;16.50;99.90;;;;;;5058678;28;36853;-77
2023/10/12 10:36:34;;;;;;;21.10;14.10;;;16.50;99.90;;;;;;5047426;28;46902;-77
2023/10/12 10:41:56;;;;;;;21.80;14.32;;;16.50;99.90;;;;;;5061233;28;48671;-76
2023/10/12 10:44:26;;;;;;;31.17;19.33;;;16.70;99.90;;;;;;5053163;28;36831;-77
2023/10/12 10:47:06;;;;;;;38.58;22.67;;;16.80;99.90;;;;;;5046040;28;39211;-77
2023/10/12 10:49:32;;;;;;;35.88;22.15;;;16.70;99.90;;;;;;5043754;28;48665;-77
2023/10/12 10:54:33;;;;;;;36.88;23.98;;;16.80;99.90;;;;;;5029936;28;48648;-78
2023/10/12 10:57:04;;;;;;;43.67;24.50;;;16.80;99.90;;;;;;5038469;28;39217;-79
2023/10/12 10:59:33;;;;;;;36.97;23.13;;;16.80;99.90;;;;;;5029411;28;47074;-79
2023/10/12 11:01:59;;;;;;;32.75;22.25;;;16.90;99.90;;;;;;5029596;28;38256;-78
2023/10/12 11:07:15;;;;;;;36.20;23.98;;;16.90;99.90;;;;;;5028384;28;39324;-79
2023/10/12 11:10:31;;;;;;;38.50;24.10;;;17.00;99.90;;;;;;5028281;28;39891;-77
2023/10/12 11:12:36;;;;;;;40.50;24.42;;;17.00;99.90;;;;;;5033832;28;48706;-78
2023/10/12 11:15:08;;;;;;;35.60;23.73;;;17.00;99.90;;;;;;5029783;28;36298;-77
2023/10/12 11:17:55;;;;;;;36.72;22.52;;;17.00;99.90;;;;;;5043978;28;47465;-79
2023/10/12 11:20:43;;;;;;;43.78;25.30;;;17.00;99.90;;;;;;5028833;28;38598;-79
2023/10/12 11:23:10;;;;;;;37.00;22.65;;;17.00;99.90;;;;;;5033991;28;38823;-78
2023/10/12 11:25:41;;;;;;;42.40;26.00;;;17.00;99.90;;;;;;5029177;28;36244;-78
2023/10/12 11:28:19;;;;;;;36.90;23.10;;;17.00;99.90;;;;;;5027830;28;38468;-78
2023/10/12 11:30:45;;;;;;;38.10;24.92;;;17.10;99.90;;;;;;5043310;28;39243;-78
2023/10/12 11:33:12;;;;;;;35.55;21.38;;;17.10;99.90;;;;;;5052567;28;38657;-78
2023/10/12 11:35:43;;;;;;;31.27;21.30;;;17.10;99.90;;;;;;5048512;28;38041;-78
2023/10/12 11:38:19;;;;;;;33.40;20.92;;;17.10;99.90;;;;;;5051053;28;39084;-79
2023/10/12 11:40:52;;;;;;;38.15;22.33;;;17.10;99.90;;;;;;5055169;28;39046;-79
2023/10/12 11:43:19;;;;;;;31.20;19.60;;;17.10;99.90;;;;;;5065175;28;39693;-77
2023/10/12 11:46:01;;;;;;;33.70;20.73;;;17.10;99.90;;;;;;5054624;28;37895;-77
2023/10/12 11:48:28;;;;;;;33.03;20.67;;;17.10;99.90;;;;;;5052399;28;47700;-78
2023/10/12 11:51:00;;;;;;;29.15;20.20;;;17.10;99.90;;;;;;5054669;28;38906;-77
2023/10/12 11:53:28;;;;;;;24.55;19.45;;;17.00;99.90;;;;;;5041508;28;39587;-78
2023/10/12 11:56:13;;;;;;;28.50;20.83;;;17.10;99.90;;;;;;5035510;28;37106;-78
2023/10/12 11:58:48;;;;;;;31.30;20.70;;;17.10;99.90;;;;;;5042155;28;47085;-77
2023/10/12 12:01:15;;;;;;;33.97;21.85;;;17.20;99.90;;;;;;5043650;28;38602;-78
2023/10/12 12:03:41;;;;;;;27.08;20.05;;;17.10;99.90;;;;;;5052205;28;37313;-78
2023/10/12 12:06:12;;;;;;;31.70;20.10;;;17.10;99.90;;;;;;5057464;28;36255;-78
2023/10/12 12:08:40;;;;;;;30.20;20.02;;;17.10;99.90;;;;;;5049835;28;39937;-78
2023/10/12 12:11:10;;;;;;;30.95;21.10;;;17.10;99.90;;;;;;5050560;28;37138;-78
2023/10/12 12:13:42;;;;;;;28.02;19.45;;;17.10;99.90;;;;;;5044800;28;37006;-77
2023/10/12 12:16:09;;;;;;;31.83;20.80;;;17.10;99.90;;;;;;5042453;28;37128;-78
2023/10/12 12:18:35;;;;;;;32.15;20.05;;;17.10;99.90;;;;;;5046974;28;38907;-77
2023/10/12 12:21:14;;;;;;;36.42;22.17;;;17.10;99.90;;;;;;5047514;28;38443;-78
2023/10/12 12:23:40;;;;;;;33.28;21.58;;;17.00;99.90;;;;;;5043161;28;37897;-78
2023/10/12 12:26:13;;;;;;;29.40;21.00;;;17.00;99.90;;;;;;5053812;28;36336;-77
2023/10/12 12:28:50;;;;;;;37.95;23.33;;;17.00;99.90;;;;;;5034256;28;39088;-77
2023/10/12 12:31:16;;;;;;;30.30;20.85;;;17.00;99.90;;;;;;5037199;28;37468;-78
2023/10/12 12:33:43;;;;;;;30.60;21.20;;;17.00;99.90;;;;;;5038796;28;36092;-78
2023/10/12 12:36:21;;;;;;;34.05;21.27;;;16.90;99.90;;;;;;5038776;28;36788;-78
2023/10/12 12:41:34;;;;;;;40.85;23.65;;;16.80;99.90;;;;;;5050858;28;49790;-78
2023/10/12 12:44:01;;;;;;;38.33;22.75;;;16.90;99.90;;;;;;5055493;28;36816;-79
2023/10/12 12:46:29;;;;;;;35.85;21.77;;;16.80;99.90;;;;;;5072265;28;37079;-78
2023/10/12 12:48:55;;;;;;;38.15;23.52;;;16.80;99.90;;;;;;5047237;28;38521;-77
2023/10/12 12:51:21;;;;;;;37.95;22.60;;;16.70;99.90;;;;;;5045462;28;38118;-78
2023/10/12 12:53:53;;;;;;;38.70;24.60;;;16.70;99.90;;;;;;5042158;28;38082;-77
2023/10/12 12:56:21;;;;;;;36.78;22.45;;;16.70;99.90;;;;;;5038843;28;37926;-77
2023/10/12 12:58:51;;;;;;;32.28;22.17;;;16.60;99.90;;;;;;5048402;28;37756;-77
2023/10/12 13:01:23;;;;;;;36.75;20.10;;;16.70;99.90;;;;;;5044184;28;37320;-78
2023/10/12 13:03:55;;;;;;;27.38;20.33;;;16.60;99.90;;;;;;5041559;28;38295;-76
2023/10/12 13:06:22;;;;;;;33.22;23.15;;;16.60;99.90;;;;;;5025435;28;37989;-77
2023/10/12 13:08:48;;;;;;;34.20;22.52;;;16.60;99.90;;;;;;5034418;28;39741;-79
2023/10/12 13:11:18;;;;;;;43.22;25.52;;;16.70;99.90;;;;;;5030123;28;37361;-76
2023/10/12 13:13:47;;;;;;;27.85;20.92;;;16.70;99.90;;;;;;5038833;28;38072;-78
2023/10/12 13:16:17;;;;;;;30.38;20.65;;;16.80;99.90;;;;;;5041784;28;38169;-80
2023/10/12 13:18:47;;;;;;;30.23;20.63;;;16.80;99.90;;;;;;5047355;28;37599;-77
2023/10/12 13:21:16;;;;;;;30.38;21.17;;;16.80;99.90;;;;;;5040361;28;38028;-77
2023/10/12 13:23:43;;;;;;;28.00;21.42;;;16.70;99.90;;;;;;5034809;28;37382;-78
2023/10/12 13:26:17;;;;;;;26.38;20.95;;;16.80;99.90;;;;;;5035834;28;37181;-77
2023/10/12 13:28:44;;;;;;;32.53;22.33;;;16.80;99.90;;;;;;5041347;28;38466;-77
2023/10/12 13:31:13;;;;;;;30.67;21.23;;;16.80;99.90;;;;;;5035383;28;37471;-77
2023/10/12 13:33:41;;;;;;;30.00;22.60;;;16.90;99.90;;;;;;5040175;28;37148;-79
2023/10/12 13:36:08;;;;;;;25.20;18.70;;;16.90;99.90;;;;;;5038538;28;38716;-78
2023/10/12 13:38:36;;;;;;;33.60;24.52;;;16.90;99.90;;;;;;5040890;28;38000;-76
2023/10/12 13:41:03;;;;;;;34.38;24.30;;;17.00;99.90;;;;;;5037272;28;38144;-76
2023/10/12 13:43:34;;;;;;;25.58;18.58;;;17.00;99.90;;;;;;5040838;28;46968;-76
2023/10/12 13:46:12;;;;;;;24.38;17.83;;;17.00;99.90;;;;;;5039632;28;36213;-76
2023/10/12 13:48:38;;;;;;;21.92;17.05;;;17.10;99.90;;;;;;5037201;28;49099;-77
2023/10/12 13:51:08;;;;;;;20.27;17.58;;;17.10;99.90;;;;;;5041745;28;38502;-76
2023/10/12 13:53:38;;;;;;;33.75;22.00;;;17.20;99.90;;;;;;5039604;28;38014;-77
2023/10/12 13:56:08;;;;;;;21.65;18.27;;;17.20;99.90;;;;;;5033519;28;37457;-77
2023/10/12 13:58:35;;;;;;;17.05;13.60;;;17.20;99.90;;;;;;5039446;28;37989;-76
2023/10/12 14:01:03;;;;;;;22.02;15.25;;;17.20;99.90;;;;;;5035314;28;38149;-77
2023/10/12 14:03:34;;;;;;;20.13;13.75;;;17.20;99.90;;;;;;5024511;28;48035;-77
2023/10/12 14:06:02;;;;;;;15.40;11.23;;;17.20;99.90;;;;;;5021138;28;37164;-77
2023/10/12 14:08:35;;;;;;;12.98;11.57;;;17.20;99.90;;;;;;5042941;28;48382;-77
2023/10/12 14:11:06;;;;;;;17.52;13.32;;;17.20;99.90;;;;;;5043718;28;37819;-76
2023/10/12 14:13:33;;;;;;;13.20;11.73;;;17.20;99.90;;;;;;5036900;28;48486;-76
2023/10/12 14:16:00;;;;;;;20.50;14.50;;;17.20;99.90;;;;;;5040572;28;37147;-77
2023/10/12 14:18:30;;;;;;;17.83;14.18;;;17.20;99.90;;;;;;5038681;28;37825;-76
2023/10/12 14:20:58;;;;;;;16.70;14.95;;;17.10;99.90;;;;;;5036783;28;39029;-76
2023/10/12 14:23:26;;;;;;;16.95;15.13;;;17.10;99.90;;;;;;5040496;28;37680;-76
2023/10/12 14:25:54;;;;;;;22.48;17.17;;;17.10;99.90;;;;;;5036464;28;38427;-77
2023/10/12 14:28:21;;;;;;;22.33;17.80;;;17.10;99.90;;;;;;5035564;28;38047;-77
2023/10/12 14:30:47;;;;;;;23.88;20.58;;;17.00;99.90;;;;;;5037984;28;38205;-77
2023/10/12 14:33:15;;;;;;;23.23;20.73;;;17.00;99.90;;;;;;5034364;28;38054;-76
2023/10/12 14:35:42;;;;;;;26.85;21.85;;;17.10;99.90;;;;;;5030434;28;36232;-77
2023/10/12 14:38:16;;;;;;;28.88;23.13;;;17.00;99.90;;;;;;5037207;28;39156;-77
2023/10/12 14:40:46;;;;;;;27.48;22.75;;;17.00;99.90;;;;;;5034324;28;37411;-77
2023/10/12 14:43:14;;;;;;;24.48;21.83;;;17.10;99.90;;;;;;5032604;28;38978;-78
2023/10/12 14:45:48;;;;;;;30.45;23.27;;;17.10;99.90;;;;;;5039251;28;37958;-78
2023/10/12 14:48:16;;;;;;;38.75;28.52;;;17.00;99.90;;;;;;5039380;28;38897;-78
2023/10/12 14:50:47;;;;;;;31.42;23.95;;;17.10;99.90;;;;;;5033693;28;38578;-78
2023/10/12 14:53:15;;;;;;;29.83;22.70;;;17.10;99.90;;;;;;5034794;28;37348;-78
2023/10/12 14:55:43;;;;;;;30.80;22.67;;;17.10;99.90;;;;;;5037816;28;37315;-80
2023/10/12 14:58:13;;;;;;;29.58;24.90;;;17.20;99.90;;;;;;5037997;28;38988;-78